Time;durP1;ratioP1;P1;durP2;ratioP2;P2;SDS_P1;SDS_P2;PMS_P1;PMS_P2;Temp;Humidity;BMP_temperature;BMP_pressure;BME280_temperature;BME280_humidity;BME280_pressure;Samples;Min_cycle;Max_cycle;Signal;HPM_P1;HPM_P2
2022/12/26 00:04:16;;;;;;;15.13;9.90;;;;;;;8.71;100.00;100866.66;10424703;28;20041;-88
2022/12/26 00:09:16;;;;;;;18.20;11.20;;;;;;;8.71;100.00;100869.28;10407377;28;20369;-88
2022/12/26 00:14:17;;;;;;;20.67;13.13;;;;;;;8.69;100.00;100857.84;10418364;28;21643;-86
2022/12/26 00:19:17;;;;;;;16.95;12.55;;;;;;;8.63;100.00;100857.50;10463355;28;20038;-86
2022/12/26 00:24:18;;;;;;;15.60;11.13;;;;;;;8.59;100.00;100859.06;10410873;28;20484;-84
2022/12/26 00:29:18;;;;;;;16.05;10.85;;;;;;;8.59;100.00;100861.69;10433839;28;20043;-84
2022/12/26 00:34:19;;;;;;;14.57;9.85;;;;;;;8.61;100.00;100883.53;10387644;28;20055;-85
2022/12/26 00:39:19;;;;;;;12.00;8.93;;;;;;;8.56;100.00;100885.00;10439490;28;20120;-85
2022/12/26 00:44:20;;;;;;;14.65;10.18;;;;;;;8.51;100.00;100892.53;10414699;28;20114;-85
2022/12/26 00:49:20;;;;;;;19.60;11.20;;;;;;;8.50;100.00;100900.28;10434729;28;20088;-84
2022/12/26 00:54:21;;;;;;;23.95;11.30;;;;;;;8.45;100.00;100893.88;10437620;28;20128;-84
2022/12/26 00:59:21;;;;;;;19.48;10.82;;;;;;;8.40;100.00;100893.59;10382320;28;20087;-84
2022/12/26 01:04:22;;;;;;;16.55;9.88;;;;;;;8.34;100.00;100906.31;10412111;28;20047;-85
2022/12/26 01:09:22;;;;;;;21.25;12.50;;;;;;;8.35;100.00;100905.50;10364442;28;20061;-84
2022/12/26 01:14:23;;;;;;;14.35;8.88;;;;;;;8.34;100.00;100907.22;10399118;28;20037;-84
2022/12/26 01:19:23;;;;;;;13.27;9.60;;;;;;;8.36;100.00;100920.31;10422862;28;20481;-84
2022/12/26 01:24:24;;;;;;;17.60;10.82;;;;;;;8.37;100.00;100922.13;10387415;28;20044;-84
2022/12/26 01:29:25;;;;;;;11.93;8.70;;;;;;;8.38;100.00;100923.91;10439036;28;20067;-84
2022/12/26 01:34:25;;;;;;;16.75;9.82;;;;;;;8.38;100.00;100922.22;10437736;28;20087;-84
2022/12/26 01:39:26;;;;;;;15.23;10.07;;;;;;;8.34;100.00;100920.25;10396755;28;20048;-84
2022/12/26 01:45:01;;;;;;;15.07;11.63;;;;;;;8.22;100.00;100919.53;10383625;28;20128;-83
2022/12/26 01:50:02;;;;;;;16.65;9.85;;;;;;;8.18;100.00;100908.03;10376830;28;20130;-84
2022/12/26 01:55:03;;;;;;;15.57;9.65;;;;;;;8.07;100.00;100922.13;10426427;28;20043;-83
2022/12/26 02:00:05;;;;;;;19.92;11.23;;;;;;;8.11;100.00;100942.38;10420505;28;20095;-84
2022/12/26 02:10:24;;;;;;;18.73;13.43;;;;;;;8.14;100.00;100954.69;10404245;28;20050;-84
2022/12/26 02:15:25;;;;;;;22.50;13.43;;;;;;;8.11;100.00;100939.75;10405950;28;20516;-85
2022/12/26 02:20:32;;;;;;;24.95;15.18;;;;;;;8.04;100.00;100946.34;10418311;28;20392;-84
2022/12/26 02:25:38;;;;;;;18.48;12.07;;;;;;;8.04;100.00;100950.63;10429441;28;20116;-84
2022/12/26 02:31:04;;;;;;;18.70;12.85;;;;;;;8.04;100.00;100971.50;10404492;28;20119;-84
2022/12/26 02:36:21;;;;;;;18.40;14.02;;;;;;;7.94;100.00;100955.31;10377102;28;20045;-83
2022/12/26 02:41:30;;;;;;;22.25;13.40;;;;;;;8.00;100.00;100953.88;10377923;28;20041;-84
2022/12/26 03:14:30;;;;;;;22.93;13.30;;;;;;;7.96;100.00;100963.22;10401330;28;20038;-83
2022/12/26 03:19:31;;;;;;;26.85;14.18;;;;;;;7.91;100.00;100968.16;10424733;28;20774;-83
2022/12/26 03:26:38;;;;;;;21.40;14.27;;;;;;;7.89;100.00;100976.69;10416192;28;20124;-83
2022/12/26 03:35:12;;;;;;;24.77;15.50;;;;;;;7.70;100.00;100962.56;10449491;28;20384;-83
2022/12/26 04:46:16;;;;;;;23.60;13.93;;;;;;;7.28;100.00;100974.72;10455719;28;20040;-82
2022/12/26 04:51:17;;;;;;;25.55;13.05;;;;;;;7.24;100.00;100986.63;10426615;28;20037;-81
2022/12/26 04:56:18;;;;;;;23.00;14.02;;;;;;;7.10;100.00;100980.56;10426847;28;20048;-81
2022/12/26 05:12:08;;;;;;;21.00;11.32;;;;;;;7.17;100.00;101000.06;10409260;28;20036;-82
2022/12/26 05:38:27;;;;;;;18.92;10.95;;;;;;;7.04;100.00;100983.66;10437352;28;20045;-82
2022/12/26 05:43:28;;;;;;;16.58;10.88;;;;;;;6.90;100.00;100989.69;10390561;28;20057;-82
2022/12/26 05:48:28;;;;;;;16.27;10.07;;;;;;;6.85;100.00;100980.69;10400505;28;20041;-82
2022/12/26 05:53:29;;;;;;;18.00;9.88;;;;;;;6.86;100.00;100975.59;10402100;28;20101;-82
2022/12/26 05:58:29;;;;;;;17.52;9.93;;;;;;;6.66;100.00;100992.50;10418346;28;20050;-82
2022/12/26 06:03:30;;;;;;;16.65;9.60;;;;;;;6.55;100.00;100993.50;10377188;28;20068;-83
2022/12/26 06:08:30;;;;;;;21.20;13.95;;;;;;;6.77;100.00;100985.41;10416068;28;20045;-81
2022/12/26 06:13:31;;;;;;;39.67;12.93;;;;;;;6.64;100.00;100986.31;10471176;28;20041;-81
2022/12/26 06:18:32;;;;;;;16.55;9.27;;;;;;;6.63;100.00;100984.50;10408478;28;20068;-86
2022/12/26 06:23:33;;;;;;;23.60;13.73;;;;;;;6.71;100.00;100998.03;10400995;28;20150;-83
2022/12/26 06:28:34;;;;;;;18.20;8.63;;;;;;;6.65;100.00;100995.03;10410783;28;20049;-83
2022/12/26 06:33:34;;;;;;;15.65;10.57;;;;;;;6.57;100.00;100999.69;10386022;28;20041;-83
2022/12/26 06:38:35;;;;;;;18.20;10.13;;;;;;;6.57;100.00;101000.63;10425493;28;20125;-83
2022/12/26 06:43:35;;;;;;;15.10;9.80;;;;;;;6.76;100.00;100999.22;10409837;28;20168;-83
2022/12/26 06:48:38;;;;;;;18.13;10.60;;;;;;;6.95;100.00;101010.81;10433551;28;20127;-81
2022/12/26 06:53:38;;;;;;;;;;;;;;;7.11;100.00;101030.91;10447937;28;20044;-83
2022/12/26 06:58:39;;;;;;;15.55;8.32;;;;;;;7.28;100.00;101051.13;10424035;28;20296;-83
2022/12/26 07:03:40;;;;;;;14.18;8.20;;;;;;;7.49;100.00;101043.78;10416266;28;20040;-83
2022/12/26 07:08:40;;;;;;;11.38;7.25;;;;;;;7.69;100.00;101038.91;10439087;28;20056;-82
2022/12/26 07:13:42;;;;;;;10.32;6.38;;;;;;;7.70;100.00;101051.13;10448649;28;20116;-82
2022/12/26 07:18:42;;;;;;;9.07;6.00;;;;;;;7.75;100.00;101072.25;10450384;28;20470;-83
2022/12/26 07:23:43;;;;;;;8.30;5.20;;;;;;;7.81;100.00;101061.31;10438669;28;20084;-83
2022/12/26 07:28:43;;;;;;;9.18;4.95;;;;;;;7.80;100.00;101070.81;10424387;28;20091;-83
2022/12/26 07:33:48;;;;;;;8.57;5.45;;;;;;;7.86;100.00;101065.13;10419733;28;20116;-83
2022/12/26 07:38:48;;;;;;;15.00;5.03;;;;;;;7.95;100.00;101060.47;10420141;28;20040;-82
2022/12/26 07:43:49;;;;;;;10.32;5.75;;;;;;;7.98;100.00;101062.34;10403025;28;20057;-83
2022/12/26 07:48:49;;;;;;;10.02;4.25;;;;;;;7.90;100.00;101061.88;10443271;28;20052;-83
2022/12/26 07:53:50;;;;;;;6.85;4.55;;;;;;;7.70;100.00;101065.84;10451527;28;20043;-83
2022/12/26 07:58:50;;;;;;;4.95;2.70;;;;;;;7.61;100.00;101051.44;10453854;28;20041;-82
2022/12/26 08:03:51;;;;;;;8.25;4.32;;;;;;;7.52;100.00;101056.06;10435186;28;20049;-83
2022/12/26 08:08:52;;;;;;;6.82;3.20;;;;;;;7.60;100.00;101053.97;10419059;28;20065;-83
2022/12/26 08:13:52;;;;;;;7.90;5.30;;;;;;;7.74;100.00;101075.66;10444994;28;20465;-82
2022/12/26 08:18:52;;;;;;;6.95;2.95;;;;;;;7.73;100.00;101102.50;10452137;28;20075;-83
2022/12/26 08:23:53;;;;;;;4.93;3.63;;;;;;;7.81;100.00;101097.81;10451233;28;20124;-82
2022/12/26 08:28:54;;;;;;;4.22;2.05;;;;;;;7.89;100.00;101086.16;10441920;28;20097;-82
2022/12/26 08:33:56;;;;;;;5.43;2.60;;;;;;;7.81;100.00;101083.06;10434127;28;20500;-81
2022/12/26 08:38:57;;;;;;;3.33;1.63;;;;;;;7.68;100.00;101091.81;10377781;28;20072;-84
2022/12/26 08:43:57;;;;;;;5.38;2.55;;;;;;;7.66;100.00;101101.25;10392419;28;20047;-84
2022/12/26 08:48:58;;;;;;;8.65;2.25;;;;;;;7.69;100.00;101097.91;10385848;28;20136;-84
2022/12/26 08:53:58;;;;;;;4.40;1.73;;;;;;;7.85;100.00;101111.09;10398959;28;20041;-84
2022/12/26 08:58:59;;;;;;;16.23;9.32;;;;;;;8.03;100.00;101116.56;10362023;28;20055;-86
2022/12/26 09:04:02;;;;;;;6.70;2.65;;;;;;;8.17;100.00;101111.31;10404266;28;20100;-84
2022/12/26 09:09:02;;;;;;;4.43;1.17;;;;;;;8.33;100.00;101110.53;10385811;28;20072;-85
2022/12/26 09:14:03;;;;;;;3.13;1.40;;;;;;;8.34;100.00;101101.88;10389223;28;20041;-85
2022/12/26 09:19:04;;;;;;;16.70;1.83;;;;;;;8.41;100.00;101111.88;10397964;28;20052;-83
2022/12/26 09:24:07;;;;;;;4.10;1.77;;;;;;;8.44;100.00;101109.47;10416569;28;20090;-83
2022/12/26 09:29:09;;;;;;;7.40;1.80;;;;;;;8.76;100.00;101104.41;10446851;28;20065;-85
2022/12/26 09:34:10;;;;;;;2.28;1.23;;;;;;;8.75;100.00;101102.63;10446789;28;20044;-85
2022/12/26 09:39:10;;;;;;;3.25;1.35;;;;;;;8.58;100.00;101107.72;10446998;28;20135;-84
2022/12/26 09:44:17;;;;;;;2.53;1.23;;;;;;;8.69;100.00;101115.28;10447357;28;20120;-85
2022/12/26 09:49:19;;;;;;;5.93;1.95;;;;;;;9.07;100.00;101114.03;10445849;28;20061;-85
2022/12/26 09:54:53;;;;;;;6.65;1.80;;;;;;;9.35;100.00;101126.06;10466706;28;20400;-85
2022/12/26 09:59:55;;;;;;;5.50;1.27;;;;;;;9.90;100.00;101117.75;10443504;28;20400;-85
2022/12/26 10:04:56;;;;;;;4.43;1.10;;;;;;;9.80;100.00;101110.22;10471531;28;20045;-85
2022/12/26 10:10:08;;;;;;;3.03;1.10;;;;;;;9.96;100.00;101112.84;10488870;28;20127;-84
2022/12/26 10:15:14;;;;;;;;;;;;;;;10.34;100.00;101118.34;10488552;28;20044;-85
2022/12/26 10:20:27;;;;;;;3.35;1.33;;;;;;;10.17;100.00;101120.06;10487654;28;20003;-85
2022/12/26 10:25:48;;;;;;;4.13;1.48;;;;;;;10.82;100.00;101118.19;10486202;28;20124;-85
2022/12/26 10:30:49;;;;;;;2.40;1.20;;;;;;;11.63;100.00;101108.13;10470238;28;20388;-85
2022/12/26 10:35:50;;;;;;;4.45;1.85;;;;;;;10.81;100.00;101102.44;10467592;28;20123;-85
2022/12/26 10:40:51;;;;;;;2.58;1.17;;;;;;;10.32;100.00;101098.13;10468589;28;20476;-84
2022/12/26 10:46:10;;;;;;;4.43;1.38;;;;;;;10.09;100.00;101109.19;10469210;28;20040;-85
2022/12/26 10:51:12;;;;;;;3.58;2.20;;;;;;;9.86;100.00;101115.78;10469907;28;20107;-85
2022/12/26 10:56:13;;;;;;;8.02;1.50;;;;;;;9.71;100.00;101121.09;10472471;28;20041;-85
2022/12/26 11:01:36;;;;;;;9.10;1.50;;;;;;;9.55;100.00;101119.31;10464784;28;20856;-85
2022/12/26 11:06:38;;;;;;;4.72;1.13;;;;;;;9.49;100.00;101130.34;10407277;28;20063;-83
2022/12/26 11:11:44;;;;;;;5.63;3.88;;;;;;;9.46;100.00;101137.09;10399301;28;20063;-83
2022/12/26 11:16:45;;;;;;;2.90;1.38;;;;;;;9.51;100.00;101131.31;10434421;28;20129;-84
2022/12/26 11:21:45;;;;;;;3.15;2.13;;;;;;;9.45;100.00;101140.53;10368610;28;20053;-84
2022/12/26 11:26:47;;;;;;;4.20;1.02;;;;;;;9.61;100.00;101143.19;10424322;28;20436;-84
2022/12/26 11:31:57;;;;;;;4.55;1.40;;;;;;;9.52;100.00;101130.53;10440582;28;20041;-84
2022/12/26 11:36:58;;;;;;;5.45;1.45;;;;;;;9.67;100.00;101150.47;10401106;28;20410;-84
2022/12/26 11:41:59;;;;;;;3.33;1.58;;;;;;;9.50;100.00;101150.44;10402954;28;20128;-83
2022/12/26 11:47:07;;;;;;;5.28;1.90;;;;;;;9.24;100.00;101147.25;10399083;28;21308;-84
2022/12/26 11:52:32;;;;;;;5.90;1.45;;;;;;;9.24;100.00;101160.28;10417760;28;20494;-83
2022/12/26 11:57:32;;;;;;;3.33;1.55;;;;;;;9.17;100.00;101162.44;10398317;28;20045;-82
2022/12/26 12:02:33;;;;;;;7.47;2.22;;;;;;;9.00;100.00;101185.84;10383714;28;20033;-82
2022/12/26 12:07:57;;;;;;;8.00;2.00;;;;;;;8.58;100.00;101186.00;10397330;28;20041;-83
2022/12/26 12:13:25;;;;;;;2.83;1.60;;;;;;;8.45;100.00;101214.72;10404998;28;20045;-82
2022/12/26 12:18:39;;;;;;;4.95;2.83;;;;;;;8.43;100.00;101217.22;10402347;28;20053;-82
2022/12/26 12:23:54;;;;;;;6.40;1.50;;;;;;;9.16;100.00;101212.88;10414627;28;20496;-83
2022/12/26 12:29:13;;;;;;;6.80;2.60;;;;;;;9.05;100.00;101193.97;10452617;28;20497;-83
2022/12/26 12:34:28;;;;;;;6.45;1.65;;;;;;;8.82;100.00;101217.88;10481482;28;20040;-84
2022/12/26 12:39:54;;;;;;;7.15;1.77;;;;;;;8.82;100.00;101217.00;10421165;28;20060;-84
2022/12/26 12:45:16;;;;;;;6.03;1.83;;;;;;;8.43;100.00;101217.22;10416423;28;20432;-83
2022/12/26 12:50:24;;;;;;;5.73;1.87;;;;;;;8.12;100.00;101224.84;10400515;28;20061;-84
2022/12/26 12:55:37;;;;;;;4.75;1.45;;;;;;;7.79;100.00;101217.56;10414857;28;20273;-84
2022/12/26 13:00:47;;;;;;;;;;;;;;;7.76;100.00;101212.16;10400737;28;20034;-84
2022/12/26 13:06:03;;;;;;;11.02;2.78;;;;;;;7.62;100.00;101225.19;10415983;28;20324;-83
2022/12/26 13:11:27;;;;;;;9.23;2.55;;;;;;;7.54;100.00;101260.25;10446869;28;20037;-83
2022/12/26 13:16:32;;;;;;;7.10;2.72;;;;;;;7.29;100.00;101258.59;10398556;28;20056;-83
2022/12/26 13:21:34;;;;;;;9.80;3.80;;;;;;;7.37;100.00;101259.13;10398743;28;20037;-84
2022/12/26 13:26:41;;;;;;;12.85;2.90;;;;;;;7.62;100.00;101258.16;10447819;28;20041;-83
2022/12/26 13:31:41;;;;;;;14.55;3.20;;;;;;;7.56;100.00;101265.56;10447985;28;20034;-84
2022/12/26 13:36:47;;;;;;;6.75;2.75;;;;;;;7.32;100.00;101263.13;10420248;28;20500;-84
2022/12/26 13:47:31;;;;;;;12.57;2.78;;;;;;;6.80;100.00;101274.38;10433297;28;20041;-83
2022/12/26 13:52:33;;;;;;;4.15;1.92;;;;;;;6.67;100.00;101276.94;10420364;28;20077;-83
2022/12/26 13:57:39;;;;;;;7.68;2.65;;;;;;;6.69;100.00;101284.03;10437086;28;20052;-82
2022/12/26 14:02:54;;;;;;;10.75;2.55;;;;;;;7.06;100.00;101301.31;10438323;28;20061;-83
2022/12/26 14:08:13;;;;;;;10.32;2.67;;;;;;;6.81;100.00;101299.63;10406147;28;20537;-83
2022/12/26 14:13:38;;;;;;;6.30;1.58;;;;;;;6.49;100.00;101310.34;10405221;28;20382;-84
2022/12/26 14:19:00;;;;;;;8.40;2.50;;;;;;;6.30;100.00;101322.94;10405237;28;20072;-84
2022/12/26 14:24:11;;;;;;;8.32;1.90;;;;;;;6.17;100.00;101325.44;10405155;28;20057;-84
2022/12/26 14:29:19;;;;;;;9.23;2.73;;;;;;;6.12;100.00;101342.38;10435503;28;20049;-83
2022/12/26 14:34:38;;;;;;;5.15;2.20;;;;;;;6.10;100.00;101357.84;10435801;28;20042;-83
2022/12/26 14:39:46;;;;;;;14.35;4.15;;;;;;;6.16;100.00;101373.91;10404989;28;20049;-83
2022/12/26 14:44:46;;;;;;;8.82;2.45;;;;;;;6.07;100.00;101386.22;10456509;28;20041;-83
2022/12/26 14:49:47;;;;;;;12.05;5.22;;;;;;;5.97;100.00;101394.09;10454723;28;20065;-83
2022/12/26 14:54:48;;;;;;;9.25;3.75;;;;;;;5.94;100.00;101392.19;10404195;28;20512;-83
2022/12/26 15:00:21;;;;;;;5.38;1.90;;;;;;;5.69;100.00;101395.53;10383837;28;20049;-83
2022/12/26 15:05:25;;;;;;;6.78;4.03;;;;;;;5.56;100.00;101400.56;10431089;28;20094;-83
2022/12/26 15:10:38;;;;;;;3.95;1.58;;;;;;;5.25;100.00;101409.47;10458935;28;20083;-83
2022/12/26 15:16:17;;;;;;;4.28;1.70;;;;;;;4.90;100.00;101440.44;10445645;28;20037;-81
2022/12/26 15:21:20;;;;;;;14.27;2.72;;;;;;;4.52;100.00;101460.81;10398858;28;20129;-84
2022/12/26 15:26:29;;;;;;;7.40;1.95;;;;;;;4.30;100.00;101485.75;10472053;28;20052;-84
2022/12/26 15:31:54;;;;;;;7.57;1.67;;;;;;;4.27;100.00;101499.34;10483916;28;20052;-84
2022/12/26 15:37:04;;;;;;;4.63;0.93;;;;;;;4.34;100.00;101506.84;10483361;28;20044;-83
2022/12/26 15:42:25;;;;;;;3.60;1.55;;;;;;;4.18;100.00;101498.56;10485307;28;20507;-83
2022/12/26 15:47:51;;;;;;;3.23;1.30;;;;;;;3.90;100.00;101497.19;10468317;28;20053;-83
2022/12/26 15:52:58;;;;;;;9.02;3.53;;;;;;;3.55;100.00;101508.03;10483994;28;20127;-84
2022/12/26 15:58:05;;;;;;;5.00;1.98;;;;;;;3.33;100.00;101528.53;10482148;28;20079;-84
2022/12/26 16:03:18;;;;;;;17.30;2.72;;;;;;;3.01;100.00;101544.69;10475371;28;20041;-84
2022/12/26 16:08:24;;;;;;;9.07;2.95;;;;;;;2.85;100.00;101560.53;10466046;28;20048;-84
2022/12/26 16:13:25;;;;;;;3.35;1.50;;;;;;;2.66;100.00;101576.06;10450795;28;20492;-84
2022/12/26 16:18:27;;;;;;;20.77;2.92;;;;;;;2.48;100.00;101582.28;10441565;28;20079;-84
2022/12/26 16:23:28;;;;;;;;;;;;;;;2.39;100.00;101588.25;10472364;28;20045;-83
2022/12/26 16:28:37;;;;;;;4.07;1.50;;;;;;;2.39;100.00;101598.59;10483894;28;20391;-83
2022/12/26 16:33:39;;;;;;;7.22;2.65;;;;;;;2.37;100.00;101593.31;10405861;28;20087;-83
2022/12/26 16:38:40;;;;;;;12.02;2.80;;;;;;;2.26;100.00;101605.22;10366867;28;20033;-84
2022/12/26 16:43:40;;;;;;;9.88;3.70;;;;;;;2.11;100.00;101621.88;10431875;28;20484;-83
2022/12/26 16:48:41;;;;;;;3.53;1.48;;;;;;;2.00;100.00;101624.34;10423765;28;20041;-83
2022/12/26 16:53:43;;;;;;;6.32;3.60;;;;;;;2.01;100.00;101627.84;10453792;28;20465;-84
2022/12/26 16:58:43;;;;;;;11.93;3.83;;;;;;;1.95;100.00;101633.34;10446300;28;20044;-83
2022/12/26 17:03:58;;;;;;;6.18;3.08;;;;;;;1.86;100.00;101638.56;10435112;28;20448;-83
2022/12/26 17:09:04;;;;;;;6.28;2.25;;;;;;;1.80;100.00;101642.19;10484853;28;20519;-83
2022/12/26 17:14:07;;;;;;;6.70;1.55;;;;;;;1.69;100.00;101646.34;10486955;28;20043;-83
2022/12/26 17:19:17;;;;;;;5.57;2.15;;;;;;;1.70;100.00;101654.22;10448699;28;20029;-82
2022/12/26 17:24:25;;;;;;;9.02;2.80;;;;;;;1.55;100.00;101663.06;10448074;28;20415;-83
2022/12/26 17:29:35;;;;;;;8.48;2.63;;;;;;;1.44;100.00;101674.94;10471501;28;20527;-83
2022/12/26 17:34:36;;;;;;;4.20;2.05;;;;;;;1.40;100.00;101665.97;10489934;28;20396;-83
2022/12/26 17:39:37;;;;;;;9.40;2.45;;;;;;;1.33;100.00;101673.00;10486712;28;20039;-82
2022/12/26 17:44:42;;;;;;;14.60;4.45;;;;;;;1.31;100.00;101688.31;10487098;28;20040;-82
2022/12/26 17:49:43;;;;;;;10.60;3.55;;;;;;;1.30;100.00;101696.81;10445551;28;20071;-83
2022/12/26 17:54:43;;;;;;;10.02;3.28;;;;;;;1.21;100.00;101693.31;10488115;28;20132;-83
2022/12/26 17:59:44;;;;;;;7.10;2.67;;;;;;;1.17;100.00;101693.00;10454189;28;20060;-82
2022/12/26 18:04:45;;;;;;;7.82;3.40;;;;;;;1.10;100.00;101694.84;10470357;28;20362;-83
2022/12/26 18:09:46;;;;;;;10.15;4.22;;;;;;;0.99;100.00;101707.59;10487297;28;20048;-82
2022/12/26 18:14:46;;;;;;;7.72;4.07;;;;;;;0.83;100.00;101724.84;10454257;28;20500;-83
2022/12/26 18:19:48;;;;;;;14.32;4.25;;;;;;;0.83;100.00;101735.16;10447081;28;20048;-82
2022/12/26 18:24:49;;;;;;;18.80;5.55;;;;;;;0.78;100.00;101737.25;10455007;28;20048;-82
2022/12/26 18:29:50;;;;;;;34.70;6.63;;;;;;;0.74;100.00;101742.84;10445031;28;20555;-82
2022/12/26 18:34:50;;;;;;;14.82;6.30;;;;;;;0.63;100.00;101761.47;10475040;28;20048;-83
2022/12/26 18:39:51;;;;;;;19.63;7.03;;;;;;;0.39;100.00;101769.44;10457313;28;20546;-82
2022/12/26 18:44:52;;;;;;;9.07;4.55;;;;;;;0.62;100.00;101769.97;10423356;28;20044;-82
2022/12/26 18:49:52;;;;;;;16.67;5.53;;;;;;;0.63;100.00;101788.16;10430179;28;20049;-82
2022/12/26 18:54:53;;;;;;;14.77;4.75;;;;;;;0.70;100.00;101797.41;10445097;28;20064;-82
2022/12/26 18:59:53;;;;;;;11.55;6.03;;;;;;;0.63;100.00;101810.44;10472376;28;20481;-82
2022/12/26 19:04:54;;;;;;;9.32;4.00;;;;;;;0.67;100.00;101820.28;10468672;28;20043;-82
2022/12/26 19:09:54;;;;;;;12.48;3.72;;;;;;;0.80;100.00;101819.91;10464035;28;20387;-83
2022/12/26 19:14:55;;;;;;;10.02;4.85;;;;;;;0.77;100.00;101838.53;10485636;28;20047;-83
2022/12/26 19:19:55;;;;;;;9.88;5.03;;;;;;;0.85;100.00;101839.31;10458954;28;20065;-82
2022/12/26 19:24:56;;;;;;;14.60;3.90;;;;;;;0.90;100.00;101842.34;10476273;28;20566;-83
2022/12/26 19:29:56;;;;;;;10.38;3.30;;;;;;;0.91;100.00;101844.19;10454800;28;20070;-83
2022/12/26 19:34:57;;;;;;;27.08;4.50;;;;;;;0.89;100.00;101836.31;10441629;28;20473;-83
2022/12/26 19:39:58;;;;;;;24.98;5.13;;;;;;;0.78;100.00;101842.94;10467487;28;20044;-82
2022/12/26 19:44:59;;;;;;;13.23;3.10;;;;;;;0.75;100.00;101850.34;10483818;28;20040;-82
2022/12/26 19:49:59;;;;;;;10.73;3.53;;;;;;;0.66;100.00;101860.63;10456293;28;20106;-82
2022/12/26 19:55:00;;;;;;;16.38;3.00;;;;;;;0.76;100.00;101862.47;10425899;28;20118;-82
2022/12/26 20:00:01;;;;;;;9.52;2.42;;;;;;;0.81;100.00;101869.00;10447344;28;20037;-82
2022/12/26 20:05:02;;;;;;;10.68;3.92;;;;;;;0.92;100.00;101877.88;10417312;28;20385;-82
2022/12/26 20:10:03;;;;;;;12.73;3.90;;;;;;;0.81;100.00;101876.75;10457306;28;20050;-82
2022/12/26 20:15:04;;;;;;;5.07;2.20;;;;;;;0.81;100.00;101878.44;10467017;28;20123;-82
2022/12/26 20:20:05;;;;;;;7.80;3.50;;;;;;;0.81;100.00;101878.44;10481456;28;20044;-82
2022/12/26 20:25:08;;;;;;;11.10;2.83;;;;;;;0.90;100.00;101878.44;10483019;28;20114;-82
2022/12/26 20:30:09;;;;;;;13.02;4.18;;;;;;;0.96;100.00;101879.06;10480139;28;20049;-82
2022/12/26 20:35:10;;;;;;;10.95;4.88;;;;;;;1.06;100.00;101888.69;10464655;28;20028;-82
2022/12/26 20:40:11;;;;;;;11.70;5.38;;;;;;;1.19;100.00;101884.03;10435120;28;20053;-83
2022/12/26 20:45:11;;;;;;;11.02;3.85;;;;;;;1.25;100.00;101892.38;10478025;28;20033;-82
2022/12/26 20:50:12;;;;;;;13.32;3.50;;;;;;;1.17;100.00;101901.00;10477047;28;20511;-82
2022/12/26 20:55:13;;;;;;;8.65;3.78;;;;;;;1.15;100.00;101895.66;10488403;28;20044;-82
2022/12/26 21:00:14;;;;;;;5.97;2.40;;;;;;;0.99;100.00;101894.84;10477206;28;20503;-82
2022/12/26 21:05:15;;;;;;;11.43;4.57;;;;;;;1.20;100.00;101902.97;10492145;28;20503;-82
2022/12/26 21:10:15;;;;;;;11.20;3.70;;;;;;;1.15;100.00;101899.94;10456423;28;20048;-83
2022/12/26 21:15:16;;;;;;;7.57;3.60;;;;;;;0.86;100.00;101911.63;10449455;28;20045;-83
2022/12/26 21:20:17;;;;;;;9.75;3.58;;;;;;;0.79;100.00;101922.06;10477007;28;20068;-83
2022/12/26 21:25:17;;;;;;;10.65;4.30;;;;;;;0.60;100.00;101933.78;10488090;28;20041;-82
2022/12/26 21:30:18;;;;;;;10.90;3.70;;;;;;;0.55;100.00;101931.63;10456720;28;20404;-83
2022/12/26 21:35:18;;;;;;;10.40;3.95;;;;;;;0.60;100.00;101945.03;10449309;28;20037;-81
2022/12/26 21:40:20;;;;;;;12.48;4.72;;;;;;;0.52;100.00;101945.88;10447037;28;20047;-81
2022/12/26 21:45:21;;;;;;;7.75;4.35;;;;;;;0.69;100.00;101955.38;10446623;28;20801;-82
2022/12/26 21:50:22;;;;;;;19.50;6.38;;;;;;;0.62;100.00;101952.91;10445962;28;20072;-82
2022/12/26 21:55:25;;;;;;;9.32;4.35;;;;;;;0.72;100.00;101954.03;10469698;28;20091;-82
2022/12/26 22:00:25;;;;;;;12.13;4.20;;;;;;;0.64;100.00;101953.97;10487505;28;20036;-82
2022/12/26 22:05:28;;;;;;;11.98;4.95;;;;;;;0.70;100.00;101958.13;10420401;28;20041;-82
2022/12/26 22:16:03;;;;;;;9.25;4.55;;;;;;;1.09;100.00;101956.03;10461016;28;19924;-82
2022/12/26 22:21:11;;;;;;;9.32;2.92;;;;;;;1.10;100.00;101960.44;10487741;28;20086;-82
2022/12/26 22:26:13;;;;;;;15.85;4.28;;;;;;;1.09;100.00;101966.34;10428783;28;20091;-82
2022/12/26 22:31:27;;;;;;;14.55;4.22;;;;;;;1.08;100.00;101975.72;10445738;28;20078;-83
2022/12/26 22:36:28;;;;;;;18.80;6.07;;;;;;;1.08;100.00;101978.31;10478324;28;20393;-82
2022/12/26 22:41:29;;;;;;;7.25;3.05;;;;;;;1.05;100.00;101987.41;10468690;28;20036;-82
2022/12/26 22:46:29;;;;;;;10.55;3.47;;;;;;;1.05;100.00;101990.00;10435338;28;20587;-82
2022/12/26 22:51:30;;;;;;;10.95;4.75;;;;;;;1.02;100.00;101993.16;10444774;28;20055;-83
2022/12/26 22:56:30;;;;;;;11.48;4.88;;;;;;;0.98;100.00;102011.63;10473425;28;20039;-83
2022/12/26 23:01:31;;;;;;;7.18;2.97;;;;;;;0.86;100.00;102014.75;10466932;28;20043;-82
2022/12/26 23:06:33;;;;;;;18.67;5.00;;;;;;;0.91;100.00;102012.66;10447351;28;20049;-81
2022/12/26 23:11:34;;;;;;;8.80;4.15;;;;;;;1.00;100.00;102015.28;10435388;28;20088;-82
2022/12/26 23:16:39;;;;;;;18.17;5.55;;;;;;;0.99;100.00;102014.38;10464452;28;20194;-82
2022/12/26 23:21:42;;;;;;;12.02;3.70;;;;;;;0.97;100.00;102018.47;10443090;28;20025;-82
2022/12/26 23:30:16;;;;;;;11.98;4.35;;;;;;;0.85;100.00;102023.22;10473021;28;20043;-81
2022/12/26 23:32:20;;;;;;;19.60;4.68;;;;;;;0.92;100.00;102039.34;10442759;28;20112;-82
2022/12/26 23:37:21;;;;;;;11.07;4.30;;;;;;;0.93;100.00;102039.53;10364638;28;20034;-83
2022/12/26 23:42:21;;;;;;;12.95;5.38;;;;;;;0.97;100.00;102033.94;10361870;28;20103;-83
2022/12/26 23:47:22;;;;;;;9.68;5.03;;;;;;;1.01;100.00;102015.47;10396506;28;20431;-82
2022/12/26 23:52:22;;;;;;;10.55;3.10;;;;;;;1.20;100.00;102027.69;10401808;28;20037;-82
2022/12/26 23:57:23;;;;;;;8.85;3.83;;;;;;;1.20;100.00;102025.09;10418416;28;20105;-82
